Time;durP1;ratioP1;P1;durP2;ratioP2;P2;SDS_P1;SDS_P2;PMS_P1;PMS_P2;Temp;Humidity;BMP_temperature;BMP_pressure;BME280_temperature;BME280_humidity;BME280_pressure;Samples;Min_cycle;Max_cycle;Signal;HPM_P1;HPM_P2
2023/01/08 00:01:02;;;;;;;51.75;30.58;;;;;;;5.28;100.00;100703.94;5023231;28;20024;-71
2023/01/08 00:03:28;;;;;;;55.22;31.25;;;;;;;5.27;100.00;100706.69;5018315;28;20026;-71
2023/01/08 00:05:53;;;;;;;63.15;30.08;;;;;;;5.18;100.00;100691.28;5018001;28;20060;-71
2023/01/08 00:08:19;;;;;;;53.67;30.90;;;;;;;5.34;100.00;100711.56;5015937;28;20471;-71
2023/01/08 00:10:44;;;;;;;60.40;31.77;;;;;;;5.30;100.00;100710.03;5014720;28;20036;-71
2023/01/08 00:13:10;;;;;;;62.35;30.88;;;;;;;5.32;100.00;100716.09;5017304;28;20028;-71
2023/01/08 00:15:35;;;;;;;59.88;32.42;;;;;;;5.35;100.00;100715.09;5014995;28;20399;-71
2023/01/08 00:18:01;;;;;;;69.57;32.00;;;;;;;5.29;100.00;100707.47;5015531;28;20640;-71
2023/01/08 00:20:27;;;;;;;64.25;31.77;;;;;;;5.34;100.00;100721.31;5019101;28;20120;-71
2023/01/08 00:22:52;;;;;;;59.42;32.05;;;;;;;5.33;100.00;100711.66;5023251;28;20084;-71
2023/01/08 00:25:19;;;;;;;59.30;33.15;;;;;;;5.35;100.00;100718.56;5012991;28;20066;-71
2023/01/08 00:27:45;;;;;;;60.20;31.30;;;;;;;5.32;100.00;100712.59;5013116;28;20493;-71
2023/01/08 00:30:11;;;;;;;62.63;34.65;;;;;;;5.30;100.00;100710.03;4998830;28;20403;-71
2023/01/08 00:32:37;;;;;;;59.15;32.38;;;;;;;5.29;100.00;100710.97;5014530;28;20030;-71
2023/01/08 00:35:03;;;;;;;55.00;31.05;;;;;;;5.29;100.00;100721.59;5010970;28;20108;-71
2023/01/08 00:37:29;;;;;;;51.90;30.55;;;;;;;5.26;100.00;100720.94;5013815;28;20112;-71
2023/01/08 00:39:55;;;;;;;60.35;31.05;;;;;;;5.24;100.00;100723.69;5013600;28;20057;-71
2023/01/08 00:42:20;;;;;;;52.60;30.48;;;;;;;5.18;100.00;100705.44;5016424;28;20502;-71
2023/01/08 00:44:46;;;;;;;59.22;31.70;;;;;;;5.23;100.00;100718.47;5017249;28;20026;-71
2023/01/08 00:47:12;;;;;;;52.83;30.50;;;;;;;5.22;100.00;100717.59;5010855;28;20036;-71
2023/01/08 00:49:37;;;;;;;64.13;29.88;;;;;;;5.22;100.00;100706.13;4993920;28;20116;-71
2023/01/08 00:52:03;;;;;;;59.22;31.75;;;;;;;5.21;100.00;100713.22;4995942;28;20034;-71
2023/01/08 00:54:28;;;;;;;59.08;32.42;;;;;;;5.22;100.00;100717.59;5014173;28;20056;-72
2023/01/08 00:56:54;;;;;;;70.18;32.20;;;;;;;5.20;100.00;100714.19;5018004;28;20053;-71
2023/01/08 00:59:20;;;;;;;57.22;32.85;;;;;;;5.09;100.00;100690.03;4997326;28;20029;-71
2023/01/08 01:01:46;;;;;;;53.88;30.67;;;;;;;5.10;100.00;100694.41;5015851;28;20083;-72
2023/01/08 01:04:13;;;;;;;59.88;32.55;;;;;;;5.27;100.00;100715.53;5015422;28;20029;-72
2023/01/08 01:06:38;;;;;;;62.03;33.58;;;;;;;5.26;100.00;100708.50;5021206;28;20048;-72
2023/01/08 01:09:04;;;;;;;62.25;30.73;;;;;;;5.28;100.00;100719.91;5015117;28;20025;-72
2023/01/08 01:11:29;;;;;;;64.55;32.70;;;;;;;5.27;100.00;100709.34;5010158;28;20029;-71
2023/01/08 01:13:55;;;;;;;60.75;31.80;;;;;;;5.12;100.00;100679.22;5000719;28;20017;-71
2023/01/08 01:16:21;;;;;;;54.80;30.38;;;;;;;5.16;100.00;100679.91;5016757;28;20118;-72
2023/01/08 01:18:47;;;;;;;64.70;31.55;;;;;;;5.28;100.00;100703.06;5018291;28;20434;-72
2023/01/08 01:21:20;;;;;;;58.22;32.88;;;;;;;5.29;100.00;100708.31;5014804;28;20033;-72
2023/01/08 01:23:46;;;;;;;62.00;33.05;;;;;;;5.25;100.00;100696.16;5017370;28;20495;-72
2023/01/08 01:26:19;;;;;;;65.63;34.05;;;;;;;5.23;100.00;100694.53;5029730;28;20035;-72
2023/01/08 01:28:50;;;;;;;61.83;30.92;;;;;;;5.28;100.00;100708.38;5012992;28;20030;-71
2023/01/08 01:31:15;;;;;;;56.75;31.42;;;;;;;5.25;100.00;100704.13;5016643;28;20041;-71
2023/01/08 01:33:41;;;;;;;56.42;30.30;;;;;;;5.26;100.00;100702.34;5001749;28;20017;-72
2023/01/08 01:36:10;;;;;;;63.80;33.00;;;;;;;5.23;100.00;100697.19;5000578;28;20045;-71
2023/01/08 01:38:35;;;;;;;58.85;30.90;;;;;;;5.26;100.00;100697.88;5017106;28;20033;-71
2023/01/08 01:41:00;;;;;;;57.35;31.30;;;;;;;5.28;100.00;100700.41;4994349;28;20052;-71
2023/01/08 01:43:41;;;;;;;61.83;32.58;;;;;;;5.27;100.00;100696.91;5018974;28;20049;-72
2023/01/08 01:46:37;;;;;;;69.13;31.13;;;;;;;5.27;100.00;100698.72;5016189;28;20479;-72
2023/01/08 01:49:10;;;;;;;58.88;30.63;;;;;;;5.23;100.00;100695.41;5001934;28;20442;-71
2023/01/08 01:51:37;;;;;;;62.05;32.17;;;;;;;5.25;100.00;100696.16;4999328;28;20026;-71
2023/01/08 01:54:06;;;;;;;53.80;30.38;;;;;;;5.27;100.00;100693.41;4999785;28;20044;-71
2023/01/08 01:56:33;;;;;;;57.05;32.42;;;;;;;5.27;100.00;100691.59;5015547;28;20404;-71
2023/01/08 01:58:59;;;;;;;61.47;32.17;;;;;;;5.08;100.00;100661.75;5002768;28;20487;-71
2023/01/08 02:01:25;;;;;;;60.58;30.98;;;;;;;5.25;100.00;100680.19;5019071;28;20551;-71
2023/01/08 02:03:51;;;;;;;59.63;32.10;;;;;;;5.27;100.00;100683.63;5019518;28;20026;-72
2023/01/08 02:06:37;;;;;;;56.47;31.00;;;;;;;5.28;100.00;100679.13;5019315;28;20033;-72
2023/01/08 02:09:24;;;;;;;64.55;32.47;;;;;;;5.26;100.00;100679.25;4992300;28;20040;-72
2023/01/08 02:12:17;;;;;;;61.13;32.38;;;;;;;5.27;100.00;100670.31;5016913;28;20030;-71
2023/01/08 02:15:10;;;;;;;62.87;32.20;;;;;;;5.29;100.00;100667.56;5013818;28;20038;-69
2023/01/08 02:18:00;;;;;;;57.85;30.55;;;;;;;5.26;100.00;100659.78;5015041;28;20037;-69
2023/01/08 02:20:29;;;;;;;64.50;32.45;;;;;;;5.26;100.00;100658.00;5018152;28;20217;-69
2023/01/08 02:23:13;;;;;;;64.22;32.42;;;;;;;5.29;100.00;100662.25;5002812;28;20160;-69
2023/01/08 02:26:06;;;;;;;55.83;29.25;;;;;;;5.31;100.00;100653.22;5016502;28;20042;-69
2023/01/08 02:28:43;;;;;;;56.92;30.38;;;;;;;5.29;100.00;100655.13;5014904;28;20065;-72
2023/01/08 02:31:09;;;;;;;52.85;28.88;;;;;;;5.21;100.00;100638.78;5016091;28;20442;-71
2023/01/08 02:33:35;;;;;;;55.33;28.83;;;;;;;5.08;100.00;100621.00;5001847;28;20030;-71
2023/01/08 02:36:25;;;;;;;52.50;29.08;;;;;;;5.32;100.00;100662.06;5019724;28;20040;-72
2023/01/08 02:39:20;;;;;;;55.22;29.25;;;;;;;5.29;100.00;100646.31;5021500;28;20088;-72
2023/01/08 02:41:48;;;;;;;53.42;28.30;;;;;;;5.28;100.00;100650.75;5017900;28;20466;-72
2023/01/08 02:44:27;;;;;;;54.78;28.30;;;;;;;5.28;100.00;100644.56;5020202;28;20026;-72
2023/01/08 02:46:55;;;;;;;49.75;28.05;;;;;;;5.33;100.00;100648.69;5016383;28;20033;-71
2023/01/08 02:49:24;;;;;;;55.00;29.15;;;;;;;5.30;100.00;100637.38;5000290;28;20028;-72
2023/01/08 02:51:52;;;;;;;54.13;26.98;;;;;;;5.32;100.00;100640.81;5002657;28;21672;-72
2023/01/08 02:54:22;;;;;;;52.78;29.65;;;;;;;5.32;100.00;100638.97;5020143;28;20036;-71
2023/01/08 02:57:05;;;;;;;52.72;28.00;;;;;;;5.33;100.00;100640.72;5020458;28;20057;-72
2023/01/08 02:59:32;;;;;;;50.58;27.23;;;;;;;5.35;100.00;100644.13;5017406;28;20017;-72
2023/01/08 03:02:01;;;;;;;54.55;28.80;;;;;;;5.35;100.00;100645.94;5008197;28;20486;-71
2023/01/08 03:04:30;;;;;;;49.28;26.15;;;;;;;5.33;100.00;100643.38;5016916;28;20380;-72
2023/01/08 03:06:56;;;;;;;49.75;26.40;;;;;;;5.34;100.00;100642.41;5006675;28;20042;-71
2023/01/08 03:09:22;;;;;;;55.05;29.83;;;;;;;5.35;100.00;100644.13;5013957;28;20083;-72
2023/01/08 03:12:07;;;;;;;58.10;28.88;;;;;;;5.38;100.00;100643.09;5009276;28;20404;-72
2023/01/08 03:14:43;;;;;;;52.92;28.20;;;;;;;5.34;100.00;100626.47;5017250;28;20958;-72
2023/01/08 03:17:20;;;;;;;49.35;27.20;;;;;;;5.39;100.00;100636.81;4992379;28;20120;-72
2023/01/08 03:20:13;;;;;;;52.20;26.45;;;;;;;5.40;100.00;100642.03;5012089;28;20044;-70
2023/01/08 03:22:41;;;;;;;49.75;26.92;;;;;;;5.28;100.00;100610.88;5011690;28;20470;-69
2023/01/08 03:25:09;;;;;;;48.10;28.00;;;;;;;5.28;100.00;100608.22;5008926;28;20209;-70
2023/01/08 03:27:41;;;;;;;53.10;29.52;;;;;;;5.44;100.00;100640.88;5011889;28;20040;-70
2023/01/08 03:30:09;;;;;;;50.83;28.25;;;;;;;5.44;100.00;100637.38;5007851;28;20013;-70
2023/01/08 03:32:36;;;;;;;51.75;29.35;;;;;;;5.33;100.00;100610.59;5011528;28;20036;-71
2023/01/08 03:35:05;;;;;;;51.20;28.30;;;;;;;5.41;100.00;100632.25;4995136;28;20026;-70
2023/01/08 03:37:37;;;;;;;55.88;29.83;;;;;;;5.30;100.00;100608.13;5015207;28;20521;-70
2023/01/08 03:40:15;;;;;;;54.67;29.33;;;;;;;5.32;100.00;100611.56;4995476;28;20107;-70
2023/01/08 03:42:41;;;;;;;51.03;29.25;;;;;;;5.37;100.00;100617.44;5022528;28;20372;-70
2023/01/08 03:45:07;;;;;;;50.17;28.15;;;;;;;5.39;100.00;100613.75;5017379;28;20028;-70
2023/01/08 03:47:34;;;;;;;50.83;28.92;;;;;;;5.40;100.00;100618.09;5006747;28;20033;-70
2023/01/08 03:50:02;;;;;;;45.38;27.17;;;;;;;5.45;100.00;100620.47;4999482;28;20056;-70
2023/01/08 03:52:29;;;;;;;47.83;26.40;;;;;;;5.42;100.00;100626.00;5015620;28;20475;-71
2023/01/08 03:54:55;;;;;;;46.95;26.48;;;;;;;5.20;100.00;100594.56;5013669;28;20637;-70
2023/01/08 03:57:20;;;;;;;41.53;24.70;;;;;;;5.39;100.00;100627.03;5013272;28;20104;-70
2023/01/08 03:59:46;;;;;;;43.50;24.63;;;;;;;5.39;100.00;100627.03;5019024;28;20021;-70
2023/01/08 04:02:12;;;;;;;44.35;26.08;;;;;;;5.38;100.00;100622.66;5002114;28;20025;-70
2023/01/08 04:04:37;;;;;;;46.30;25.90;;;;;;;5.36;100.00;100616.59;5013090;28;20033;-70
2023/01/08 04:07:03;;;;;;;45.95;25.80;;;;;;;5.37;100.00;100617.44;5013609;28;20029;-70
2023/01/08 04:09:28;;;;;;;40.85;24.38;;;;;;;5.44;100.00;100626.72;5021299;28;20131;-70
2023/01/08 04:11:54;;;;;;;39.38;24.20;;;;;;;5.32;100.00;100611.56;4994072;28;20022;-70
2023/01/08 04:14:19;;;;;;;40.67;24.08;;;;;;;5.31;100.00;100609.81;4991178;28;20395;-70
2023/01/08 04:16:45;;;;;;;39.30;24.35;;;;;;;5.35;100.00;100614.03;5017929;28;20036;-70
2023/01/08 04:19:11;;;;;;;40.53;25.65;;;;;;;5.40;100.00;100625.22;5014198;28;20040;-70
2023/01/08 04:21:37;;;;;;;38.03;24.08;;;;;;;5.38;100.00;100622.66;4993896;28;20021;-70
2023/01/08 04:24:03;;;;;;;38.45;24.98;;;;;;;5.36;100.00;100619.25;5012639;28;21440;-70
2023/01/08 04:26:29;;;;;;;38.95;26.00;;;;;;;5.36;100.00;100607.75;5011998;28;20080;-70
2023/01/08 04:28:55;;;;;;;39.08;24.70;;;;;;;5.34;100.00;100613.16;5018051;28;20130;-70
2023/01/08 04:31:20;;;;;;;40.30;24.77;;;;;;;5.18;100.00;100574.31;5023593;28;20033;-71
2023/01/08 04:33:45;;;;;;;37.60;25.63;;;;;;;5.34;100.00;100602.53;5009165;28;20017;-71
2023/01/08 04:36:11;;;;;;;41.47;25.92;;;;;;;5.32;100.00;100598.25;5013214;28;20029;-70
2023/01/08 04:38:39;;;;;;;37.67;24.83;;;;;;;5.30;100.00;100606.31;5014527;28;20022;-70
2023/01/08 04:41:05;;;;;;;35.55;24.33;;;;;;;5.26;100.00;100596.84;5015377;28;20018;-70
2023/01/08 04:43:31;;;;;;;44.38;26.77;;;;;;;5.31;100.00;100621.31;5014830;28;20029;-70
2023/01/08 04:46:01;;;;;;;39.88;26.67;;;;;;;5.16;100.00;100582.38;5013264;28;20037;-70
2023/01/08 04:48:27;;;;;;;40.85;27.23;;;;;;;5.31;100.00;100616.00;4993576;28;20026;-68
2023/01/08 04:50:53;;;;;;;39.85;26.63;;;;;;;5.31;100.00;100610.69;5017009;28;20472;-68
2023/01/08 04:53:19;;;;;;;41.80;26.48;;;;;;;5.26;100.00;100603.94;5014024;28;20041;-68
2023/01/08 04:55:44;;;;;;;40.35;27.65;;;;;;;5.29;100.00;100606.41;5011494;28;20095;-68
2023/01/08 04:58:10;;;;;;;39.78;27.30;;;;;;;5.27;100.00;100597.66;5011069;28;20037;-68
2023/01/08 05:00:38;;;;;;;42.53;27.85;;;;;;;5.14;100.00;100583.44;5018900;28;20035;-68
2023/01/08 05:03:03;;;;;;;41.78;27.98;;;;;;;5.25;100.00;100605.75;5014959;28;20033;-68
2023/01/08 05:05:29;;;;;;;43.38;27.77;;;;;;;5.23;100.00;100607.66;5013586;28;20144;-68
2023/01/08 05:07:54;;;;;;;42.50;28.25;;;;;;;5.21;100.00;100609.53;5021626;28;20029;-68
2023/01/08 05:10:21;;;;;;;41.72;27.52;;;;;;;5.22;100.00;100611.25;5023947;28;20100;-68
2023/01/08 05:12:46;;;;;;;43.80;29.73;;;;;;;5.22;100.00;100607.75;5018737;28;20038;-68
2023/01/08 05:15:12;;;;;;;42.15;27.42;;;;;;;5.17;100.00;100596.53;5018926;28;20025;-68
2023/01/08 05:17:37;;;;;;;42.72;27.80;;;;;;;5.21;100.00;100598.91;5018037;28;20033;-68
2023/01/08 05:20:03;;;;;;;40.95;27.98;;;;;;;5.17;100.00;100605.38;5014078;28;20037;-68
2023/01/08 05:22:28;;;;;;;43.25;29.15;;;;;;;5.09;100.00;100583.69;5016581;28;20041;-68
2023/01/08 05:24:53;;;;;;;44.15;28.70;;;;;;;5.01;100.00;100566.50;5016479;28;20064;-68
2023/01/08 05:27:19;;;;;;;42.33;27.83;;;;;;;5.19;100.00;100600.78;5022690;28;20047;-68
2023/01/08 05:29:44;;;;;;;44.78;29.52;;;;;;;5.08;100.00;100575.81;5025528;28;20483;-68
2023/01/08 05:32:14;;;;;;;45.05;29.55;;;;;;;5.05;100.00;100573.34;5017286;28;20036;-68
2023/01/08 05:34:39;;;;;;;50.05;31.20;;;;;;;5.08;100.00;100574.03;5023243;28;20164;-68
2023/01/08 05:37:04;;;;;;;45.08;29.33;;;;;;;5.20;100.00;100607.84;5007342;28;20110;-68
2023/01/08 05:39:30;;;;;;;43.40;29.77;;;;;;;5.18;100.00;100598.22;5014614;28;20025;-68
2023/01/08 05:41:55;;;;;;;47.20;30.85;;;;;;;5.19;100.00;100595.47;5012780;28;20021;-68
2023/01/08 05:44:21;;;;;;;45.67;30.48;;;;;;;5.06;100.00;100577.72;5018469;28;20036;-68
2023/01/08 05:46:46;;;;;;;43.40;28.58;;;;;;;5.01;100.00;100559.41;5023586;28;20036;-68
2023/01/08 05:49:11;;;;;;;43.33;29.38;;;;;;;5.19;100.00;100590.16;5015957;28;20037;-68
2023/01/08 05:51:37;;;;;;;44.28;29.33;;;;;;;5.04;100.00;100569.84;5013723;28;20040;-70
2023/01/08 05:54:02;;;;;;;44.10;29.70;;;;;;;5.19;100.00;100584.00;4998258;28;20052;-70
2023/01/08 05:56:28;;;;;;;48.88;32.33;;;;;;;5.16;100.00;100592.16;5024171;28;20056;-70
2023/01/08 05:58:54;;;;;;;44.45;30.80;;;;;;;5.15;100.00;100588.66;5018761;28;20025;-68
2023/01/08 06:01:20;;;;;;;49.28;31.73;;;;;;;5.14;100.00;100578.09;5000702;28;20021;-68
2023/01/08 06:03:46;;;;;;;48.17;29.83;;;;;;;5.14;100.00;100583.44;5008971;28;20022;-68
2023/01/08 06:06:11;;;;;;;46.88;30.42;;;;;;;5.21;100.00;100595.38;5008579;28;20096;-68
2023/01/08 06:08:37;;;;;;;44.72;29.33;;;;;;;4.99;100.00;100557.81;5017707;28;20053;-68
2023/01/08 06:11:05;;;;;;;47.50;30.25;;;;;;;5.17;100.00;100584.09;4993271;28;20076;-68
2023/01/08 06:13:32;;;;;;;45.55;30.38;;;;;;;5.18;100.00;100582.28;5024616;28;20069;-68
2023/01/08 06:15:59;;;;;;;48.40;31.02;;;;;;;5.23;100.00;100593.50;5018654;28;20541;-68
2023/01/08 06:18:25;;;;;;;47.33;31.63;;;;;;;5.21;100.00;100590.06;5007549;28;20109;-68
2023/01/08 06:20:51;;;;;;;46.25;30.20;;;;;;;5.21;100.00;100590.06;5018945;28;20033;-68
2023/01/08 06:23:16;;;;;;;44.88;30.60;;;;;;;5.17;100.00;100576.13;5020177;28;20052;-68
2023/01/08 06:25:41;;;;;;;47.75;31.00;;;;;;;5.04;100.00;100553.91;5014613;28;20025;-68
2023/01/08 06:28:07;;;;;;;49.33;32.05;;;;;;;5.16;100.00;100578.88;5019079;28;20862;-70
2023/01/08 06:30:32;;;;;;;46.22;30.58;;;;;;;5.16;100.00;100576.22;5013695;28;20129;-70
2023/01/08 06:32:59;;;;;;;45.90;30.25;;;;;;;5.13;100.00;100576.41;5017962;28;20116;-71
2023/01/08 06:35:26;;;;;;;49.10;30.92;;;;;;;5.16;100.00;100581.53;5017645;28;20127;-68
2023/01/08 06:37:53;;;;;;;47.05;31.13;;;;;;;5.04;100.00;100559.22;4995796;28;20030;-68
2023/01/08 06:40:19;;;;;;;47.00;30.52;;;;;;;5.10;100.00;100564.16;5016812;28;20052;-68
2023/01/08 06:42:45;;;;;;;50.35;32.25;;;;;;;5.11;100.00;100560.56;5011440;28;20026;-69
2023/01/08 06:45:11;;;;;;;46.55;30.30;;;;;;;5.01;100.00;100542.59;5012087;28;20068;-69
2023/01/08 06:47:36;;;;;;;48.78;31.60;;;;;;;5.04;100.00;100540.63;5024122;28;20091;-68
2023/01/08 06:50:02;;;;;;;49.33;30.77;;;;;;;5.14;100.00;100556.84;5016747;28;20033;-69
2023/01/08 06:52:28;;;;;;;44.10;30.50;;;;;;;5.20;100.00;100565.31;5009538;28;20034;-69
2023/01/08 06:54:53;;;;;;;43.58;31.15;;;;;;;5.15;100.00;100555.88;5014253;28;20056;-69
2023/01/08 06:57:19;;;;;;;48.45;32.17;;;;;;;5.19;100.00;100571.56;5018533;28;20057;-69
2023/01/08 06:59:44;;;;;;;46.70;31.48;;;;;;;5.20;100.00;100573.28;5001526;28;20022;-69
2023/01/08 07:02:14;;;;;;;46.47;32.53;;;;;;;5.20;100.00;100569.75;5013166;28;20549;-69
2023/01/08 07:04:39;;;;;;;44.50;30.52;;;;;;;5.20;100.00;100580.38;5018474;28;20041;-69
2023/01/08 07:07:05;;;;;;;50.15;32.90;;;;;;;5.22;100.00;100573.19;5010912;28;20566;-69
2023/01/08 07:09:32;;;;;;;47.28;31.33;;;;;;;5.16;100.00;100569.06;5014494;28;20141;-69
2023/01/08 07:11:58;;;;;;;45.90;30.73;;;;;;;4.98;100.00;100530.34;5014703;28;20491;-69
2023/01/08 07:14:23;;;;;;;48.22;33.00;;;;;;;5.19;100.00;100568.06;5015151;28;20040;-68
2023/01/08 07:16:49;;;;;;;47.90;32.83;;;;;;;5.15;100.00;100567.38;5013425;28;20383;-68
2023/01/08 07:19:14;;;;;;;50.05;32.80;;;;;;;5.13;100.00;100568.44;5022741;28;20044;-69
2023/01/08 07:21:40;;;;;;;50.50;33.50;;;;;;;5.14;100.00;100578.97;5015704;28;20486;-69
2023/01/08 07:24:06;;;;;;;51.22;33.25;;;;;;;5.14;100.00;100578.09;4995839;28;20026;-69
2023/01/08 07:26:32;;;;;;;48.92;32.28;;;;;;;5.12;100.00;100580.84;5003040;28;20105;-68
2023/01/08 07:28:57;;;;;;;54.03;34.60;;;;;;;4.88;100.00;100534.53;5012078;28;20049;-69
2023/01/08 07:31:23;;;;;;;50.63;34.60;;;;;;;5.04;100.00;100564.53;5021141;28;20037;-68
2023/01/08 07:33:49;;;;;;;55.28;34.70;;;;;;;5.16;100.00;100581.53;4998872;28;20029;-68
2023/01/08 07:36:15;;;;;;;49.83;33.78;;;;;;;5.25;100.00;100584.47;5015304;28;20029;-69
2023/01/08 07:38:41;;;;;;;50.67;34.03;;;;;;;5.24;100.00;100573.94;4999026;28;20026;-68
2023/01/08 07:41:06;;;;;;;51.30;33.88;;;;;;;5.29;100.00;100578.00;5001832;28;20479;-69
2023/01/08 07:43:34;;;;;;;54.92;35.53;;;;;;;5.29;100.00;100575.34;5013646;28;20275;-68
2023/01/08 07:46:01;;;;;;;52.15;35.97;;;;;;;5.30;100.00;100574.41;4994398;28;20566;-69
2023/01/08 07:48:27;;;;;;;55.67;35.80;;;;;;;5.28;100.00;100573.66;5008540;28;20029;-68
2023/01/08 07:50:53;;;;;;;53.97;35.47;;;;;;;5.26;100.00;100558.75;4994403;28;20036;-68
2023/01/08 07:53:18;;;;;;;51.75;33.97;;;;;;;5.27;100.00;100549.81;5016975;28;20450;-68
2023/01/08 07:55:44;;;;;;;55.55;36.85;;;;;;;5.31;100.00;100554.84;5023528;28;20048;-69
2023/01/08 07:58:11;;;;;;;56.40;36.53;;;;;;;5.44;100.00;100568.22;5021644;28;20042;-69
2023/01/08 08:00:37;;;;;;;52.08;35.47;;;;;;;5.29;100.00;100543.44;5014368;28;20039;-68
2023/01/08 08:03:08;;;;;;;58.22;36.75;;;;;;;5.31;100.00;100536.22;5022200;28;20037;-69
2023/01/08 08:05:34;;;;;;;53.45;36.33;;;;;;;5.49;100.00;100550.19;5010654;28;20112;-69
2023/01/08 08:07:59;;;;;;;56.97;35.88;;;;;;;5.35;100.00;100527.09;5010694;28;20424;-69
2023/01/08 08:10:25;;;;;;;54.70;36.90;;;;;;;5.55;100.00;100547.13;5001891;28;20095;-69
2023/01/08 08:12:50;;;;;;;56.40;36.42;;;;;;;5.56;100.00;100543.50;4998277;28;20030;-69
2023/01/08 08:15:16;;;;;;;59.58;38.92;;;;;;;5.65;100.00;100549.13;5021274;28;20034;-69
2023/01/08 08:17:46;;;;;;;55.88;36.25;;;;;;;5.72;100.00;100538.91;5012839;28;20034;-69
2023/01/08 08:20:11;;;;;;;62.47;40.25;;;;;;;5.72;100.00;100537.13;4992057;28;20037;-70
2023/01/08 08:22:36;;;;;;;61.63;40.70;;;;;;;5.84;100.00;100541.66;5023894;28;20025;-69
2023/01/08 08:25:02;;;;;;;57.47;39.33;;;;;;;5.91;100.00;100542.13;5005096;28;20030;-69
2023/01/08 08:27:28;;;;;;;58.58;39.55;;;;;;;5.95;100.00;100539.19;4993646;28;20041;-69
2023/01/08 08:29:53;;;;;;;58.47;38.78;;;;;;;5.92;100.00;100518.06;5009093;28;20040;-69
2023/01/08 08:32:18;;;;;;;61.15;42.00;;;;;;;6.03;100.00;100523.53;5010931;28;20023;-69
2023/01/08 08:34:44;;;;;;;64.43;42.28;;;;;;;6.05;100.00;100524.31;5022696;28;20017;-69
2023/01/08 08:37:09;;;;;;;59.35;39.53;;;;;;;6.01;100.00;100513.94;5007239;28;20021;-70
2023/01/08 08:39:35;;;;;;;60.00;40.30;;;;;;;6.12;100.00;100522.06;5021221;28;20032;-69
2023/01/08 08:42:01;;;;;;;54.85;39.80;;;;;;;6.18;100.00;100522.53;5015929;28;20472;-69
2023/01/08 08:44:26;;;;;;;62.38;40.20;;;;;;;6.06;100.00;100496.72;5012723;28;20860;-69
2023/01/08 08:46:51;;;;;;;60.67;41.63;;;;;;;6.26;100.00;100522.84;5019564;28;20095;-69
2023/01/08 08:49:17;;;;;;;60.83;41.05;;;;;;;6.31;100.00;100520.75;5014275;28;20026;-69
2023/01/08 08:51:42;;;;;;;59.42;40.25;;;;;;;6.37;100.00;100520.34;5007215;28;20434;-68
2023/01/08 08:54:09;;;;;;;59.10;40.08;;;;;;;6.44;100.00;100513.66;5014102;28;20032;-69
2023/01/08 08:56:35;;;;;;;59.00;40.80;;;;;;;6.38;100.00;100499.88;5004294;28;20489;-68
2023/01/08 08:59:00;;;;;;;55.20;39.40;;;;;;;6.60;100.00;100529.44;5006864;28;20044;-69
2023/01/08 09:01:25;;;;;;;55.17;39.38;;;;;;;6.61;100.00;100529.34;5017783;28;20048;-69
2023/01/08 09:03:51;;;;;;;58.83;39.55;;;;;;;6.44;100.00;100486.13;5012913;28;20025;-69
2023/01/08 09:06:17;;;;;;;59.50;40.15;;;;;;;6.65;100.00;100511.34;5012511;28;20030;-68
2023/01/08 09:08:43;;;;;;;60.08;40.50;;;;;;;6.70;100.00;100511.84;5024091;28;20029;-69
2023/01/08 09:11:08;;;;;;;62.72;40.83;;;;;;;6.79;100.00;100520.09;5015873;28;20026;-69
2023/01/08 09:13:36;;;;;;;63.58;41.58;;;;;;;6.85;100.00;100510.81;4998167;28;20033;-69
2023/01/08 09:16:02;;;;;;;57.83;39.10;;;;;;;6.88;100.00;100506.13;5010908;28;20042;-70
2023/01/08 09:18:27;;;;;;;58.95;40.88;;;;;;;6.89;100.00;100485.63;5020473;28;20079;-69
2023/01/08 09:20:52;;;;;;;56.10;39.42;;;;;;;7.04;100.00;100509.41;5014687;28;20033;-70
2023/01/08 09:23:18;;;;;;;60.63;39.95;;;;;;;7.11;100.00;100503.63;5017313;28;20084;-69
2023/01/08 09:25:43;;;;;;;56.08;37.10;;;;;;;7.05;100.00;100472.94;5022617;28;20431;-69
2023/01/08 09:28:11;;;;;;;55.80;38.60;;;;;;;7.21;100.00;100486.00;4997429;28;20041;-69
2023/01/08 09:30:37;;;;;;;57.72;37.67;;;;;;;7.28;100.00;100487.31;5005021;28;20045;-69
2023/01/08 09:33:04;;;;;;;53.00;36.95;;;;;;;7.27;100.00;100466.91;4987082;28;20054;-69
2023/01/08 09:35:30;;;;;;;56.72;37.28;;;;;;;7.24;100.00;100451.97;5013335;28;20026;-69
2023/01/08 09:37:56;;;;;;;50.70;35.50;;;;;;;7.54;100.00;100480.94;5011485;28;20068;-70
2023/01/08 09:40:25;;;;;;;55.80;36.47;;;;;;;7.58;100.00;100477.06;5017295;28;20057;-70
2023/01/08 09:42:57;;;;;;;51.85;35.35;;;;;;;7.63;100.00;100480.25;4996314;28;20060;-69
2023/01/08 09:45:29;;;;;;;57.42;36.60;;;;;;;7.57;100.00;100462.88;5019526;28;20675;-69
2023/01/08 09:47:58;;;;;;;47.00;33.20;;;;;;;7.77;100.00;100472.94;5017214;28;20037;-69
2023/01/08 09:50:26;;;;;;;49.28;33.63;;;;;;;7.81;100.00;100462.88;5010669;28;20529;-69
2023/01/08 09:52:52;;;;;;;50.67;32.58;;;;;;;7.84;100.00;100447.47;5014023;28;20037;-69
2023/01/08 09:55:17;;;;;;;46.15;31.55;;;;;;;7.97;100.00;100464.28;5014029;28;20040;-69
2023/01/08 09:57:44;;;;;;;46.03;31.55;;;;;;;8.03;100.00;100460.31;5024643;28;20542;-69
2023/01/08 10:00:16;;;;;;;48.13;32.60;;;;;;;8.15;100.00;100467.41;5015568;28;20365;-69
2023/01/08 10:02:42;;;;;;;49.33;31.42;;;;;;;8.16;100.00;100429.06;5017725;28;20035;-69
2023/01/08 10:05:17;;;;;;;41.38;30.55;;;;;;;8.47;100.00;100457.81;5009540;28;20033;-69
2023/01/08 10:07:43;;;;;;;43.42;30.85;;;;;;;8.57;100.00;100446.31;5006267;28;20127;-69
2023/01/08 10:10:18;;;;;;;48.38;31.30;;;;;;;8.69;100.00;100447.16;5016126;28;20032;-69
2023/01/08 10:12:45;;;;;;;44.53;30.55;;;;;;;8.73;100.00;100438.78;5017291;28;20117;-69
2023/01/08 10:15:14;;;;;;;41.88;28.58;;;;;;;8.83;100.00;100452.28;5021664;28;20029;-69
2023/01/08 10:17:53;;;;;;;42.38;29.02;;;;;;;8.88;100.00;100428.72;5020458;28;20029;-69
2023/01/08 10:20:22;;;;;;;42.08;28.30;;;;;;;8.92;100.00;100427.50;5016985;28;20100;-69
2023/01/08 10:22:58;;;;;;;43.13;28.95;;;;;;;9.08;100.00;100419.94;5011584;28;20545;-69
2023/01/08 10:25:26;;;;;;;37.15;24.80;;;;;;;9.15;100.00;100405.97;5021510;28;20091;-69
2023/01/08 10:27:53;;;;;;;36.63;24.58;;;;;;;9.32;99.82;100415.28;5012436;28;20113;-69
2023/01/08 10:30:22;;;;;;;37.65;24.48;;;;;;;9.44;98.58;100418.81;4988255;28;20029;-69
2023/01/08 10:32:52;;;;;;;32.13;22.58;;;;;;;9.54;96.04;100414.41;5012077;28;20121;-69
2023/01/08 10:35:28;;;;;;;29.77;21.17;;;;;;;9.62;93.14;100391.38;5025924;28;20040;-69
2023/01/08 10:37:54;;;;;;;31.48;22.15;;;;;;;9.71;93.07;100404.00;5010316;28;20142;-69
2023/01/08 10:40:28;;;;;;;28.42;20.75;;;;;;;9.74;92.98;100398.38;5019168;28;20499;-69
2023/01/08 10:42:56;;;;;;;29.90;20.60;;;;;;;9.77;92.58;100386.56;5015946;28;20045;-69
2023/01/08 10:45:24;;;;;;;30.83;20.77;;;;;;;9.80;92.16;100391.69;5015779;28;20022;-69
2023/01/08 10:47:54;;;;;;;31.20;20.10;;;;;;;9.84;91.84;100385.94;5016180;28;20812;-69
2023/01/08 10:50:27;;;;;;;27.75;19.98;;;;;;;9.89;91.07;100374.81;5012578;28;20113;-69
2023/01/08 10:52:58;;;;;;;30.75;19.23;;;;;;;9.96;90.91;100374.16;5022086;28;20291;-69
2023/01/08 10:55:28;;;;;;;29.10;19.13;;;;;;;10.09;89.77;100374.03;5019484;28;20025;-69
2023/01/08 10:58:02;;;;;;;30.00;19.20;;;;;;;10.12;89.06;100366.56;5025291;28;20148;-69
2023/01/08 11:00:32;;;;;;;27.73;18.50;;;;;;;10.11;88.22;100329.19;5014465;28;21604;-69
2023/01/08 11:03:00;;;;;;;26.88;18.67;;;;;;;10.34;88.29;100355.72;5017302;28;20092;-69
2023/01/08 11:05:38;;;;;;;27.85;18.50;;;;;;;10.41;87.19;100337.25;5008514;28;21002;-69
2023/01/08 11:08:15;;;;;;;28.08;18.60;;;;;;;10.53;88.03;100346.91;5011461;28;20487;-69
2023/01/08 11:10:40;;;;;;;26.30;18.48;;;;;;;10.56;87.87;100336.78;5019410;28;20515;-69
2023/01/08 11:13:14;;;;;;;28.90;20.77;;;;;;;10.65;87.61;100341.34;5023223;28;20087;-69